sensor_id;sensor_type;location;lat;lon;timestamp;temperature;humidity
13148;DHT22;6639;50.956;4.242;2024-01-15T00:00:06;7.20;99.90
13148;DHT22;6639;50.956;4.242;2024-01-15T00:02:34;7.10;99.90
13148;DHT22;6639;50.956;4.242;2024-01-15T00:05:03;7.40;99.90
13148;DHT22;6639;50.956;4.242;2024-01-15T00:07:32;7.40;99.90
13148;DHT22;6639;50.956;4.242;2024-01-15T00:09:59;7.50;99.90
13148;DHT22;6639;50.956;4.242;2024-01-15T00:12:26;7.70;99.90
13148;DHT22;6639;50.956;4.242;2024-01-15T00:14:54;7.80;99.90
13148;DHT22;6639;50.956;4.242;2024-01-15T00:17:21;8.10;99.90
13148;DHT22;6639;50.956;4.242;2024-01-15T00:19:48;8.20;99.90
13148;DHT22;6639;50.956;4.242;2024-01-15T00:22:15;8.10;99.90
13148;DHT22;6639;50.956;4.242;2024-01-15T00:24:41;7.50;99.90
13148;DHT22;6639;50.956;4.242;2024-01-15T00:27:08;7.50;99.90
13148;DHT22;6639;50.956;4.242;2024-01-15T00:29:35;7.70;99.90
13148;DHT22;6639;50.956;4.242;2024-01-15T00:32:04;7.90;99.90
13148;DHT22;6639;50.956;4.242;2024-01-15T00:34:32;8.00;99.90
13148;DHT22;6639;50.956;4.242;2024-01-15T00:36:59;8.20;99.90
13148;DHT22;6639;50.956;4.242;2024-01-15T00:39:26;8.10;99.90
13148;DHT22;6639;50.956;4.242;2024-01-15T00:41:53;8.30;99.90
13148;DHT22;6639;50.956;4.242;2024-01-15T00:44:20;8.80;99.90
13148;DHT22;6639;50.956;4.242;2024-01-15T00:46:47;9.10;99.90
13148;DHT22;6639;50.956;4.242;2024-01-15T00:49:15;8.80;99.90
13148;DHT22;6639;50.956;4.242;2024-01-15T00:51:42;8.80;99.90
13148;DHT22;6639;50.956;4.242;2024-01-15T00:54:09;8.70;99.90
13148;DHT22;6639;50.956;4.242;2024-01-15T00:56:37;8.70;99.90
13148;DHT22;6639;50.956;4.242;2024-01-15T00:59:04;9.10;99.90
13148;DHT22;6639;50.956;4.242;2024-01-15T01:01:31;9.40;99.90
13148;DHT22;6639;50.956;4.242;2024-01-15T01:03:58;9.30;99.90
13148;DHT22;6639;50.956;4.242;2024-01-15T01:06:26;9.30;99.90
13148;DHT22;6639;50.956;4.242;2024-01-15T01:08:53;9.00;99.90
13148;DHT22;6639;50.956;4.242;2024-01-15T01:11:20;9.00;99.90
13148;DHT22;6639;50.956;4.242;2024-01-15T01:13:47;8.90;99.90
13148;DHT22;6639;50.956;4.242;2024-01-15T01:16:14;8.70;99.90
13148;DHT22;6639;50.956;4.242;2024-01-15T01:18:40;8.50;99.90
13148;DHT22;6639;50.956;4.242;2024-01-15T01:21:07;8.70;99.90
13148;DHT22;6639;50.956;4.242;2024-01-15T01:23:36;8.90;99.90
13148;DHT22;6639;50.956;4.242;2024-01-15T01:26:03;9.00;99.90
13148;DHT22;6639;50.956;4.242;2024-01-15T01:28:30;9.10;99.90
13148;DHT22;6639;50.956;4.242;2024-01-15T01:30:57;9.20;99.90
13148;DHT22;6639;50.956;4.242;2024-01-15T01:33:24;9.10;99.90
13148;DHT22;6639;50.956;4.242;2024-01-15T01:35:51;9.10;99.90
13148;DHT22;6639;50.956;4.242;2024-01-15T01:38:18;9.10;99.90
13148;DHT22;6639;50.956;4.242;2024-01-15T01:40:47;8.90;99.90
13148;DHT22;6639;50.956;4.242;2024-01-15T01:43:14;8.80;99.90
13148;DHT22;6639;50.956;4.242;2024-01-15T01:45:40;8.80;99.90
13148;DHT22;6639;50.956;4.242;2024-01-15T01:48:07;8.70;99.90
13148;DHT22;6639;50.956;4.242;2024-01-15T01:50:34;8.70;99.90
13148;DHT22;6639;50.956;4.242;2024-01-15T01:53:01;8.60;99.90
13148;DHT22;6639;50.956;4.242;2024-01-15T01:55:31;8.20;99.90
13148;DHT22;6639;50.956;4.242;2024-01-15T01:58:03;8.10;99.90
13148;DHT22;6639;50.956;4.242;2024-01-15T02:00:34;8.20;99.90
13148;DHT22;6639;50.956;4.242;2024-01-15T02:03:02;8.30;99.90
13148;DHT22;6639;50.956;4.242;2024-01-15T02:05:30;8.60;99.90
13148;DHT22;6639;50.956;4.242;2024-01-15T02:07:57;8.60;99.90
13148;DHT22;6639;50.956;4.242;2024-01-15T02:10:24;8.40;99.90
13148;DHT22;6639;50.956;4.242;2024-01-15T02:12:53;8.40;99.90
13148;DHT22;6639;50.956;4.242;2024-01-15T02:15:22;8.60;99.90
13148;DHT22;6639;50.956;4.242;2024-01-15T02:17:59;8.60;99.90
13148;DHT22;6639;50.956;4.242;2024-01-15T02:20:26;8.60;99.90
13148;DHT22;6639;50.956;4.242;2024-01-15T02:22:53;8.70;99.90
13148;DHT22;6639;50.956;4.242;2024-01-15T02:25:21;8.70;99.90
13148;DHT22;6639;50.956;4.242;2024-01-15T02:27:49;8.70;99.90
13148;DHT22;6639;50.956;4.242;2024-01-15T02:30:15;8.70;99.90
13148;DHT22;6639;50.956;4.242;2024-01-15T02:32:43;8.30;99.90
13148;DHT22;6639;50.956;4.242;2024-01-15T02:35:10;8.00;99.90
13148;DHT22;6639;50.956;4.242;2024-01-15T02:37:37;7.80;99.90
13148;DHT22;6639;50.956;4.242;2024-01-15T02:40:04;8.00;99.90
13148;DHT22;6639;50.956;4.242;2024-01-15T02:42:33;8.40;99.90
13148;DHT22;6639;50.956;4.242;2024-01-15T02:45:00;8.50;99.90
13148;DHT22;6639;50.956;4.242;2024-01-15T02:47:27;8.40;99.90
13148;DHT22;6639;50.956;4.242;2024-01-15T02:49:54;8.60;99.90
13148;DHT22;6639;50.956;4.242;2024-01-15T02:52:22;8.60;99.90
13148;DHT22;6639;50.956;4.242;2024-01-15T02:54:49;8.60;99.90
13148;DHT22;6639;50.956;4.242;2024-01-15T02:57:16;8.80;99.90
13148;DHT22;6639;50.956;4.242;2024-01-15T02:59:44;8.60;99.90
13148;DHT22;6639;50.956;4.242;2024-01-15T03:02:11;8.70;99.90
13148;DHT22;6639;50.956;4.242;2024-01-15T03:04:42;8.40;99.90
13148;DHT22;6639;50.956;4.242;2024-01-15T03:07:09;8.30;99.90
13148;DHT22;6639;50.956;4.242;2024-01-15T03:09:36;8.20;99.90
13148;DHT22;6639;50.956;4.242;2024-01-15T03:12:04;7.90;99.90
13148;DHT22;6639;50.956;4.242;2024-01-15T03:14:31;7.90;99.90
13148;DHT22;6639;50.956;4.242;2024-01-15T03:16:59;7.80;99.90
13148;DHT22;6639;50.956;4.242;2024-01-15T03:19:27;8.10;99.90
13148;DHT22;6639;50.956;4.242;2024-01-15T03:21:54;8.40;99.90
13148;DHT22;6639;50.956;4.242;2024-01-15T03:24:21;8.70;99.90
13148;DHT22;6639;50.956;4.242;2024-01-15T03:26:48;8.90;99.90
13148;DHT22;6639;50.956;4.242;2024-01-15T03:29:15;8.70;99.90
13148;DHT22;6639;50.956;4.242;2024-01-15T03:31:41;8.70;99.90
13148;DHT22;6639;50.956;4.242;2024-01-15T03:34:11;8.90;99.90
13148;DHT22;6639;50.956;4.242;2024-01-15T03:36:38;8.70;99.90
13148;DHT22;6639;50.956;4.242;2024-01-15T03:39:06;8.50;99.90
13148;DHT22;6639;50.956;4.242;2024-01-15T03:41:33;8.90;99.90
13148;DHT22;6639;50.956;4.242;2024-01-15T03:44:00;8.70;99.90
13148;DHT22;6639;50.956;4.242;2024-01-15T03:46:27;8.50;99.90
13148;DHT22;6639;50.956;4.242;2024-01-15T03:48:54;8.40;99.90
13148;DHT22;6639;50.956;4.242;2024-01-15T03:51:23;8.50;99.90
13148;DHT22;6639;50.956;4.242;2024-01-15T03:53:49;8.80;99.90
13148;DHT22;6639;50.956;4.242;2024-01-15T03:56:16;8.80;99.90
13148;DHT22;6639;50.956;4.242;2024-01-15T03:58:43;8.70;99.90
13148;DHT22;6639;50.956;4.242;2024-01-15T04:01:10;8.90;99.90
13148;DHT22;6639;50.956;4.242;2024-01-15T04:03:37;8.50;99.90
13148;DHT22;6639;50.956;4.242;2024-01-15T04:06:05;8.70;99.90
13148;DHT22;6639;50.956;4.242;2024-01-15T04:08:33;8.60;99.90
13148;DHT22;6639;50.956;4.242;2024-01-15T04:11:00;8.70;99.90
13148;DHT22;6639;50.956;4.242;2024-01-15T04:13:27;8.60;99.90
13148;DHT22;6639;50.956;4.242;2024-01-15T04:15:54;8.20;99.90
13148;DHT22;6639;50.956;4.242;2024-01-15T04:18:21;8.20;99.90
13148;DHT22;6639;50.956;4.242;2024-01-15T04:20:48;8.40;99.90
13148;DHT22;6639;50.956;4.242;2024-01-15T04:23:15;8.20;99.90
13148;DHT22;6639;50.956;4.242;2024-01-15T04:25:43;7.70;99.90
13148;DHT22;6639;50.956;4.242;2024-01-15T04:28:11;7.50;99.90
13148;DHT22;6639;50.956;4.242;2024-01-15T04:30:38;7.50;99.90
13148;DHT22;6639;50.956;4.242;2024-01-15T04:33:05;7.60;99.90
13148;DHT22;6639;50.956;4.242;2024-01-15T04:35:33;7.70;99.90
13148;DHT22;6639;50.956;4.242;2024-01-15T04:38:00;7.30;99.90
13148;DHT22;6639;50.956;4.242;2024-01-15T04:40:27;7.30;99.90
13148;DHT22;6639;50.956;4.242;2024-01-15T04:42:55;7.60;99.90
13148;DHT22;6639;50.956;4.242;2024-01-15T04:45:25;7.90;99.90
13148;DHT22;6639;50.956;4.242;2024-01-15T04:47:54;8.10;99.90
13148;DHT22;6639;50.956;4.242;2024-01-15T04:50:22;8.00;99.90
13148;DHT22;6639;50.956;4.242;2024-01-15T04:52:49;8.20;99.90
13148;DHT22;6639;50.956;4.242;2024-01-15T04:55:17;8.30;99.90
13148;DHT22;6639;50.956;4.242;2024-01-15T04:57:44;8.40;99.90
13148;DHT22;6639;50.956;4.242;2024-01-15T05:00:13;8.40;99.90
13148;DHT22;6639;50.956;4.242;2024-01-15T05:02:41;8.30;99.90
13148;DHT22;6639;50.956;4.242;2024-01-15T05:05:08;8.30;99.90
13148;DHT22;6639;50.956;4.242;2024-01-15T05:07:35;8.30;99.90
13148;DHT22;6639;50.956;4.242;2024-01-15T05:10:02;8.40;99.90
13148;DHT22;6639;50.956;4.242;2024-01-15T05:12:29;8.40;99.90
13148;DHT22;6639;50.956;4.242;2024-01-15T05:14:56;8.40;99.90
13148;DHT22;6639;50.956;4.242;2024-01-15T05:17:24;8.20;99.90
13148;DHT22;6639;50.956;4.242;2024-01-15T05:19:51;8.00;99.90
13148;DHT22;6639;50.956;4.242;2024-01-15T05:22:18;8.10;99.90
13148;DHT22;6639;50.956;4.242;2024-01-15T05:24:46;8.00;99.90
13148;DHT22;6639;50.956;4.242;2024-01-15T05:27:13;8.00;99.90
13148;DHT22;6639;50.956;4.242;2024-01-15T05:29:40;7.80;99.90
13148;DHT22;6639;50.956;4.242;2024-01-15T05:32:07;7.90;99.90
13148;DHT22;6639;50.956;4.242;2024-01-15T05:34:34;7.80;99.90
13148;DHT22;6639;50.956;4.242;2024-01-15T05:37:01;7.70;99.90
13148;DHT22;6639;50.956;4.242;2024-01-15T05:39:29;7.30;99.90
13148;DHT22;6639;50.956;4.242;2024-01-15T05:41:57;7.20;99.90
13148;DHT22;6639;50.956;4.242;2024-01-15T05:44:24;7.50;99.90
13148;DHT22;6639;50.956;4.242;2024-01-15T05:46:52;7.50;99.90
13148;DHT22;6639;50.956;4.242;2024-01-15T05:49:19;7.50;99.90
13148;DHT22;6639;50.956;4.242;2024-01-15T05:51:48;7.70;99.90
13148;DHT22;6639;50.956;4.242;2024-01-15T05:54:14;7.70;99.90
13148;DHT22;6639;50.956;4.242;2024-01-15T05:56:41;7.90;99.90
13148;DHT22;6639;50.956;4.242;2024-01-15T05:59:08;8.30;99.90
13148;DHT22;6639;50.956;4.242;2024-01-15T06:01:35;8.50;99.90
13148;DHT22;6639;50.956;4.242;2024-01-15T06:04:02;8.30;99.90
13148;DHT22;6639;50.956;4.242;2024-01-15T06:06:29;8.10;99.90
13148;DHT22;6639;50.956;4.242;2024-01-15T06:08:57;8.00;99.90
13148;DHT22;6639;50.956;4.242;2024-01-15T06:11:30;7.80;99.90
13148;DHT22;6639;50.956;4.242;2024-01-15T06:13:58;7.20;99.90
13148;DHT22;6639;50.956;4.242;2024-01-15T06:16:26;7.30;99.90
13148;DHT22;6639;50.956;4.242;2024-01-15T06:18:53;7.20;99.90
13148;DHT22;6639;50.956;4.242;2024-01-15T06:21:20;6.80;99.90
13148;DHT22;6639;50.956;4.242;2024-01-15T06:23:47;6.90;99.90
13148;DHT22;6639;50.956;4.242;2024-01-15T06:26:15;7.10;99.90
13148;DHT22;6639;50.956;4.242;2024-01-15T06:28:42;7.00;99.90
13148;DHT22;6639;50.956;4.242;2024-01-15T06:31:09;6.70;99.90
13148;DHT22;6639;50.956;4.242;2024-01-15T06:33:36;6.60;99.90
13148;DHT22;6639;50.956;4.242;2024-01-15T06:36:04;6.80;99.90
13148;DHT22;6639;50.956;4.242;2024-01-15T06:38:31;6.70;99.90
13148;DHT22;6639;50.956;4.242;2024-01-15T06:40:58;6.80;99.90
13148;DHT22;6639;50.956;4.242;2024-01-15T06:43:26;7.00;99.90
13148;DHT22;6639;50.956;4.242;2024-01-15T06:45:53;7.10;99.90
13148;DHT22;6639;50.956;4.242;2024-01-15T06:48:20;7.20;99.90
13148;DHT22;6639;50.956;4.242;2024-01-15T06:50:47;7.20;99.90
13148;DHT22;6639;50.956;4.242;2024-01-15T06:53:14;7.30;99.90
13148;DHT22;6639;50.956;4.242;2024-01-15T06:55:43;7.50;99.90
13148;DHT22;6639;50.956;4.242;2024-01-15T06:58:09;7.50;99.90
13148;DHT22;6639;50.956;4.242;2024-01-15T07:00:38;7.50;99.90
13148;DHT22;6639;50.956;4.242;2024-01-15T07:03:06;7.40;99.90
13148;DHT22;6639;50.956;4.242;2024-01-15T07:05:35;7.40;99.90
13148;DHT22;6639;50.956;4.242;2024-01-15T07:08:03;7.60;99.90
13148;DHT22;6639;50.956;4.242;2024-01-15T07:10:30;7.50;99.90
13148;DHT22;6639;50.956;4.242;2024-01-15T07:12:58;7.70;99.90
13148;DHT22;6639;50.956;4.242;2024-01-15T07:15:26;7.90;99.90
13148;DHT22;6639;50.956;4.242;2024-01-15T07:17:54;7.30;99.90
13148;DHT22;6639;50.956;4.242;2024-01-15T07:20:22;7.40;99.90
13148;DHT22;6639;50.956;4.242;2024-01-15T07:22:49;7.70;99.90
13148;DHT22;6639;50.956;4.242;2024-01-15T07:25:16;7.60;99.90
13148;DHT22;6639;50.956;4.242;2024-01-15T07:27:43;7.60;99.90
13148;DHT22;6639;50.956;4.242;2024-01-15T07:30:11;7.50;99.90
13148;DHT22;6639;50.956;4.242;2024-01-15T07:32:38;7.30;99.90
13148;DHT22;6639;50.956;4.242;2024-01-15T07:35:07;7.20;99.90
13148;DHT22;6639;50.956;4.242;2024-01-15T07:37:35;7.20;99.90
13148;DHT22;6639;50.956;4.242;2024-01-15T07:40:02;7.10;99.90
13148;DHT22;6639;50.956;4.242;2024-01-15T07:42:31;6.90;99.90
13148;DHT22;6639;50.956;4.242;2024-01-15T07:44:58;6.90;99.90
13148;DHT22;6639;50.956;4.242;2024-01-15T07:47:25;6.80;99.90
13148;DHT22;6639;50.956;4.242;2024-01-15T07:49:52;6.90;99.90
13148;DHT22;6639;50.956;4.242;2024-01-15T07:52:21;6.70;99.90
13148;DHT22;6639;50.956;4.242;2024-01-15T07:54:48;7.00;99.90
13148;DHT22;6639;50.956;4.242;2024-01-15T07:57:15;7.10;99.90
13148;DHT22;6639;50.956;4.242;2024-01-15T07:59:42;7.10;99.90
13148;DHT22;6639;50.956;4.242;2024-01-15T08:02:09;7.20;99.90
13148;DHT22;6639;50.956;4.242;2024-01-15T08:04:36;7.20;99.90
13148;DHT22;6639;50.956;4.242;2024-01-15T08:07:03;7.40;99.90
13148;DHT22;6639;50.956;4.242;2024-01-15T08:09:32;7.40;99.90
13148;DHT22;6639;50.956;4.242;2024-01-15T08:11:59;7.70;99.90
13148;DHT22;6639;50.956;4.242;2024-01-15T08:14:26;7.80;99.90
13148;DHT22;6639;50.956;4.242;2024-01-15T08:16:53;7.80;99.90
13148;DHT22;6639;50.956;4.242;2024-01-15T08:19:20;7.70;99.90
13148;DHT22;6639;50.956;4.242;2024-01-15T08:21:47;7.30;99.90
13148;DHT22;6639;50.956;4.242;2024-01-15T08:24:15;7.30;99.90
13148;DHT22;6639;50.956;4.242;2024-01-15T08:26:44;7.20;99.90
13148;DHT22;6639;50.956;4.242;2024-01-15T08:29:11;7.30;99.90
13148;DHT22;6639;50.956;4.242;2024-01-15T08:31:38;7.40;99.90
13148;DHT22;6639;50.956;4.242;2024-01-15T08:34:05;7.40;99.90
13148;DHT22;6639;50.956;4.242;2024-01-15T08:36:32;7.20;99.90
13148;DHT22;6639;50.956;4.242;2024-01-15T08:39:01;7.30;99.90
13148;DHT22;6639;50.956;4.242;2024-01-15T08:41:30;7.50;99.90
13148;DHT22;6639;50.956;4.242;2024-01-15T08:43:58;7.30;99.90
13148;DHT22;6639;50.956;4.242;2024-01-15T08:46:25;7.20;99.90
13148;DHT22;6639;50.956;4.242;2024-01-15T08:48:52;7.30;99.90
13148;DHT22;6639;50.956;4.242;2024-01-15T08:51:19;7.30;99.90
13148;DHT22;6639;50.956;4.242;2024-01-15T08:53:46;7.30;99.90
13148;DHT22;6639;50.956;4.242;2024-01-15T08:56:13;7.70;99.90
13148;DHT22;6639;50.956;4.242;2024-01-15T08:58:40;7.80;99.90
13148;DHT22;6639;50.956;4.242;2024-01-15T09:01:09;7.70;99.90
13148;DHT22;6639;50.956;4.242;2024-01-15T09:03:37;7.60;99.90
13148;DHT22;6639;50.956;4.242;2024-01-15T09:06:04;7.50;99.90
13148;DHT22;6639;50.956;4.242;2024-01-15T09:08:30;7.40;99.90
13148;DHT22;6639;50.956;4.242;2024-01-15T09:10:57;7.40;99.90
13148;DHT22;6639;50.956;4.242;2024-01-15T09:13:24;7.40;99.90
13148;DHT22;6639;50.956;4.242;2024-01-15T09:15:53;7.60;99.90
13148;DHT22;6639;50.956;4.242;2024-01-15T09:18:21;8.00;99.90
13148;DHT22;6639;50.956;4.242;2024-01-15T09:20:48;8.10;99.90
13148;DHT22;6639;50.956;4.242;2024-01-15T09:23:15;8.10;99.90
13148;DHT22;6639;50.956;4.242;2024-01-15T09:25:42;7.70;99.90
13148;DHT22;6639;50.956;4.242;2024-01-15T09:28:09;8.10;99.90
13148;DHT22;6639;50.956;4.242;2024-01-15T09:30:36;8.40;99.90
13148;DHT22;6639;50.956;4.242;2024-01-15T09:33:03;8.80;99.90
13148;DHT22;6639;50.956;4.242;2024-01-15T09:35:32;8.60;99.90
13148;DHT22;6639;50.956;4.242;2024-01-15T09:37:59;8.90;99.90
13148;DHT22;6639;50.956;4.242;2024-01-15T09:40:31;9.10;99.90
13148;DHT22;6639;50.956;4.242;2024-01-15T09:42:58;9.50;99.90
13148;DHT22;6639;50.956;4.242;2024-01-15T09:45:25;9.40;99.90
13148;DHT22;6639;50.956;4.242;2024-01-15T09:47:52;9.30;99.90
13148;DHT22;6639;50.956;4.242;2024-01-15T09:50:19;9.50;99.90
13148;DHT22;6639;50.956;4.242;2024-01-15T09:52:48;9.50;99.90
13148;DHT22;6639;50.956;4.242;2024-01-15T09:55:17;9.40;99.90
13148;DHT22;6639;50.956;4.242;2024-01-15T09:57:44;9.80;99.90
13148;DHT22;6639;50.956;4.242;2024-01-15T10:00:13;9.70;99.90
13148;DHT22;6639;50.956;4.242;2024-01-15T10:02:41;9.70;99.90
13148;DHT22;6639;50.956;4.242;2024-01-15T10:05:08;9.70;99.90
13148;DHT22;6639;50.956;4.242;2024-01-15T10:07:37;10.10;99.90
13148;DHT22;6639;50.956;4.242;2024-01-15T10:10:07;10.00;99.90
13148;DHT22;6639;50.956;4.242;2024-01-15T10:12:34;10.20;99.90
13148;DHT22;6639;50.956;4.242;2024-01-15T10:15:02;10.60;99.90
13148;DHT22;6639;50.956;4.242;2024-01-15T10:17:30;10.80;99.90
13148;DHT22;6639;50.956;4.242;2024-01-15T10:19:57;10.90;99.90
13148;DHT22;6639;50.956;4.242;2024-01-15T10:22:25;10.80;99.90
13148;DHT22;6639;50.956;4.242;2024-01-15T10:24:52;10.70;99.90
13148;DHT22;6639;50.956;4.242;2024-01-15T10:27:20;10.60;99.90
13148;DHT22;6639;50.956;4.242;2024-01-15T10:29:47;10.50;99.90
13148;DHT22;6639;50.956;4.242;2024-01-15T10:32:14;10.80;99.90
13148;DHT22;6639;50.956;4.242;2024-01-15T10:34:41;11.00;99.90
13148;DHT22;6639;50.956;4.242;2024-01-15T10:37:08;11.20;99.90
13148;DHT22;6639;50.956;4.242;2024-01-15T10:39:35;11.70;99.90
13148;DHT22;6639;50.956;4.242;2024-01-15T10:42:02;11.60;99.90
13148;DHT22;6639;50.956;4.242;2024-01-15T10:44:30;11.40;99.60
13148;DHT22;6639;50.956;4.242;2024-01-15T10:46:57;11.40;99.90
13148;DHT22;6639;50.956;4.242;2024-01-15T10:49:24;11.30;99.90
13148;DHT22;6639;50.956;4.242;2024-01-15T10:51:54;11.10;99.90
13148;DHT22;6639;50.956;4.242;2024-01-15T10:54:21;10.50;99.90
13148;DHT22;6639;50.956;4.242;2024-01-15T10:56:50;9.90;99.90
13148;DHT22;6639;50.956;4.242;2024-01-15T10:59:20;9.00;99.90
13148;DHT22;6639;50.956;4.242;2024-01-15T11:01:48;8.90;99.90
13148;DHT22;6639;50.956;4.242;2024-01-15T11:04:16;9.00;99.90
13148;DHT22;6639;50.956;4.242;2024-01-15T11:06:45;9.20;99.90
13148;DHT22;6639;50.956;4.242;2024-01-15T11:09:13;8.70;99.90
13148;DHT22;6639;50.956;4.242;2024-01-15T11:11:41;8.50;99.90
13148;DHT22;6639;50.956;4.242;2024-01-15T11:14:09;8.10;99.90
13148;DHT22;6639;50.956;4.242;2024-01-15T11:16:56;8.60;99.90
13148;DHT22;6639;50.956;4.242;2024-01-15T11:19:25;9.20;99.90
13148;DHT22;6639;50.956;4.242;2024-01-15T11:21:52;9.60;99.90
13148;DHT22;6639;50.956;4.242;2024-01-15T11:24:34;9.70;99.90
13148;DHT22;6639;50.956;4.242;2024-01-15T11:27:02;10.00;99.90
13148;DHT22;6639;50.956;4.242;2024-01-15T11:29:31;10.10;99.90
13148;DHT22;6639;50.956;4.242;2024-01-15T11:32:11;9.90;99.90
13148;DHT22;6639;50.956;4.242;2024-01-15T11:34:57;9.80;99.90
13148;DHT22;6639;50.956;4.242;2024-01-15T11:37:26;10.00;99.90
13148;DHT22;6639;50.956;4.242;2024-01-15T11:39:53;9.40;99.90
13148;DHT22;6639;50.956;4.242;2024-01-15T11:42:21;9.40;99.90
13148;DHT22;6639;50.956;4.242;2024-01-15T11:44:49;9.30;99.90
13148;DHT22;6639;50.956;4.242;2024-01-15T11:47:36;9.50;99.90
13148;DHT22;6639;50.956;4.242;2024-01-15T11:50:10;9.40;99.90
13148;DHT22;6639;50.956;4.242;2024-01-15T11:52:38;9.70;99.90
13148;DHT22;6639;50.956;4.242;2024-01-15T11:55:12;10.20;99.90
13148;DHT22;6639;50.956;4.242;2024-01-15T11:57:41;10.20;99.90
13148;DHT22;6639;50.956;4.242;2024-01-15T12:00:10;10.20;99.90
13148;DHT22;6639;50.956;4.242;2024-01-15T12:02:39;10.30;99.90
13148;DHT22;6639;50.956;4.242;2024-01-15T12:05:07;10.60;99.90
13148;DHT22;6639;50.956;4.242;2024-01-15T12:07:34;10.30;99.90
13148;DHT22;6639;50.956;4.242;2024-01-15T12:10:01;10.50;99.90
13148;DHT22;6639;50.956;4.242;2024-01-15T12:12:37;10.40;99.90
13148;DHT22;6639;50.956;4.242;2024-01-15T12:15:07;10.80;99.90
13148;DHT22;6639;50.956;4.242;2024-01-15T12:17:35;11.00;99.80
13148;DHT22;6639;50.956;4.242;2024-01-15T12:20:07;11.00;99.90
13148;DHT22;6639;50.956;4.242;2024-01-15T12:22:38;11.50;99.90
13148;DHT22;6639;50.956;4.242;2024-01-15T12:25:05;11.30;99.00
13148;DHT22;6639;50.956;4.242;2024-01-15T12:27:32;10.40;99.90
13148;DHT22;6639;50.956;4.242;2024-01-15T12:29:59;9.70;99.90
13148;DHT22;6639;50.956;4.242;2024-01-15T12:32:26;8.90;99.90
13148;DHT22;6639;50.956;4.242;2024-01-15T12:34:53;8.50;99.90
13148;DHT22;6639;50.956;4.242;2024-01-15T12:37:21;8.90;99.90
13148;DHT22;6639;50.956;4.242;2024-01-15T12:39:48;9.00;99.90
13148;DHT22;6639;50.956;4.242;2024-01-15T12:42:16;8.60;99.90
13148;DHT22;6639;50.956;4.242;2024-01-15T12:44:43;8.70;99.90
13148;DHT22;6639;50.956;4.242;2024-01-15T12:47:12;9.10;99.90
13148;DHT22;6639;50.956;4.242;2024-01-15T12:49:46;9.20;99.90
13148;DHT22;6639;50.956;4.242;2024-01-15T12:52:13;9.40;99.90
13148;DHT22;6639;50.956;4.242;2024-01-15T12:54:42;8.90;99.90
13148;DHT22;6639;50.956;4.242;2024-01-15T12:57:08;8.20;99.90
13148;DHT22;6639;50.956;4.242;2024-01-15T12:59:35;8.20;99.90
13148;DHT22;6639;50.956;4.242;2024-01-15T13:02:02;8.10;99.90
13148;DHT22;6639;50.956;4.242;2024-01-15T13:04:29;8.60;99.90
13148;DHT22;6639;50.956;4.242;2024-01-15T13:06:57;9.10;99.90
13148;DHT22;6639;50.956;4.242;2024-01-15T13:09:24;9.60;99.90
13148;DHT22;6639;50.956;4.242;2024-01-15T13:11:52;9.80;99.90
13148;DHT22;6639;50.956;4.242;2024-01-15T13:14:19;9.90;99.90
13148;DHT22;6639;50.956;4.242;2024-01-15T13:16:45;10.30;99.90
13148;DHT22;6639;50.956;4.242;2024-01-15T13:19:12;10.00;99.90
13148;DHT22;6639;50.956;4.242;2024-01-15T13:21:39;10.20;99.90
13148;DHT22;6639;50.956;4.242;2024-01-15T13:24:07;10.20;99.90
13148;DHT22;6639;50.956;4.242;2024-01-15T13:26:34;10.40;99.90
13148;DHT22;6639;50.956;4.242;2024-01-15T13:29:03;10.40;99.90
13148;DHT22;6639;50.956;4.242;2024-01-15T13:31:31;10.40;99.90
13148;DHT22;6639;50.956;4.242;2024-01-15T13:34:00;10.10;99.90
13148;DHT22;6639;50.956;4.242;2024-01-15T13:36:28;10.10;99.90
13148;DHT22;6639;50.956;4.242;2024-01-15T13:38:55;9.70;99.90
13148;DHT22;6639;50.956;4.242;2024-01-15T13:41:24;9.60;99.90
13148;DHT22;6639;50.956;4.242;2024-01-15T13:43:53;9.50;99.90
13148;DHT22;6639;50.956;4.242;2024-01-15T13:46:24;9.50;99.90
13148;DHT22;6639;50.956;4.242;2024-01-15T13:48:52;9.20;99.90
13148;DHT22;6639;50.956;4.242;2024-01-15T13:51:21;9.10;99.90
13148;DHT22;6639;50.956;4.242;2024-01-15T13:53:48;9.40;99.90
13148;DHT22;6639;50.956;4.242;2024-01-15T13:56:16;10.10;99.90
13148;DHT22;6639;50.956;4.242;2024-01-15T13:58:43;10.70;99.90
13148;DHT22;6639;50.956;4.242;2024-01-15T14:01:10;11.00;99.90
13148;DHT22;6639;50.956;4.242;2024-01-15T14:03:39;11.00;99.90
13148;DHT22;6639;50.956;4.242;2024-01-15T14:06:06;10.40;99.90
13148;DHT22;6639;50.956;4.242;2024-01-15T14:08:36;10.20;99.90
13148;DHT22;6639;50.956;4.242;2024-01-15T14:11:04;9.90;99.90
13148;DHT22;6639;50.956;4.242;2024-01-15T14:13:31;9.40;99.90
13148;DHT22;6639;50.956;4.242;2024-01-15T14:15:59;8.70;99.90
13148;DHT22;6639;50.956;4.242;2024-01-15T14:18:26;8.70;99.90
13148;DHT22;6639;50.956;4.242;2024-01-15T14:20:54;8.00;99.90
13148;DHT22;6639;50.956;4.242;2024-01-15T14:23:22;7.60;99.90
13148;DHT22;6639;50.956;4.242;2024-01-15T14:25:49;7.80;99.90
13148;DHT22;6639;50.956;4.242;2024-01-15T14:28:15;8.00;99.90
13148;DHT22;6639;50.956;4.242;2024-01-15T14:30:42;8.10;99.90
13148;DHT22;6639;50.956;4.242;2024-01-15T14:33:09;8.50;99.90
13148;DHT22;6639;50.956;4.242;2024-01-15T14:35:36;9.00;99.90
13148;DHT22;6639;50.956;4.242;2024-01-15T14:38:05;9.30;99.90
13148;DHT22;6639;50.956;4.242;2024-01-15T14:40:33;9.70;99.90
13148;DHT22;6639;50.956;4.242;2024-01-15T14:43:02;9.80;99.90
13148;DHT22;6639;50.956;4.242;2024-01-15T14:45:29;9.50;99.90
13148;DHT22;6639;50.956;4.242;2024-01-15T14:47:56;9.00;99.90
13148;DHT22;6639;50.956;4.242;2024-01-15T14:50:23;8.80;99.90
13148;DHT22;6639;50.956;4.242;2024-01-15T14:52:50;8.50;99.90
13148;DHT22;6639;50.956;4.242;2024-01-15T14:55:19;8.60;99.90
13148;DHT22;6639;50.956;4.242;2024-01-15T14:57:46;8.20;99.90
13148;DHT22;6639;50.956;4.242;2024-01-15T15:00:13;8.40;99.90
13148;DHT22;6639;50.956;4.242;2024-01-15T15:02:42;8.70;99.90
13148;DHT22;6639;50.956;4.242;2024-01-15T15:05:09;8.90;99.90
13148;DHT22;6639;50.956;4.242;2024-01-15T15:07:38;8.80;99.90
13148;DHT22;6639;50.956;4.242;2024-01-15T15:10:07;8.80;99.90
13148;DHT22;6639;50.956;4.242;2024-01-15T15:12:35;8.80;99.90
13148;DHT22;6639;50.956;4.242;2024-01-15T15:15:02;9.10;99.90
13148;DHT22;6639;50.956;4.242;2024-01-15T15:17:29;8.70;99.90
13148;DHT22;6639;50.956;4.242;2024-01-15T15:19:56;8.40;99.90
13148;DHT22;6639;50.956;4.242;2024-01-15T15:22:23;8.90;99.90
13148;DHT22;6639;50.956;4.242;2024-01-15T15:24:50;8.90;99.90
13148;DHT22;6639;50.956;4.242;2024-01-15T15:27:17;8.90;99.90
13148;DHT22;6639;50.956;4.242;2024-01-15T15:29:45;9.10;99.90
13148;DHT22;6639;50.956;4.242;2024-01-15T15:32:13;9.50;99.90
13148;DHT22;6639;50.956;4.242;2024-01-15T15:34:40;9.20;99.90
13148;DHT22;6639;50.956;4.242;2024-01-15T15:37:07;8.80;99.90
13148;DHT22;6639;50.956;4.242;2024-01-15T15:39:34;8.50;99.90
13148;DHT22;6639;50.956;4.242;2024-01-15T15:42:01;8.30;99.90
13148;DHT22;6639;50.956;4.242;2024-01-15T15:44:28;8.30;99.90
13148;DHT22;6639;50.956;4.242;2024-01-15T15:46:56;8.20;99.90
13148;DHT22;6639;50.956;4.242;2024-01-15T15:49:23;8.40;99.90
13148;DHT22;6639;50.956;4.242;2024-01-15T15:51:50;8.10;99.90
13148;DHT22;6639;50.956;4.242;2024-01-15T15:54:17;8.40;99.90
13148;DHT22;6639;50.956;4.242;2024-01-15T15:56:45;8.20;99.90
13148;DHT22;6639;50.956;4.242;2024-01-15T15:59:15;8.30;99.90
13148;DHT22;6639;50.956;4.242;2024-01-15T16:01:44;8.40;99.90